LIBD/BRI METAR and TAF weather

Enter ICAO airport designator
Station Type Date Time Source
LIBD METAR 2020/07/09 17:20 UTC NOAA

LIBD 091720Z 03003KT 340V090 CAVOK 26/15 Q1016


Station Type Date Time Source
LIBD Decoded METAR 2020/07/09 17:20 UTC NOAA

Bari / Palese Macchie, Italy (LIBD) 41-08N 016-47E 49M
Jul 09, 2020 - 01:20 PM EDT / 2020.07.09 1720 UTC
Wind: from the NNE (030 degrees) at 3 MPH (3 KT) (direction variable):0
Visibility: greater than 7 mile(s):0
Temperature: 78 F (26 C)
Dew Point: 59 F (15 C)
Relative Humidity: 50%
Pressure (altimeter): 30.00 in. Hg (1016 hPa)
ob: LIBD 091720Z 03003KT 340V090 CAVOK 26/15 Q1016
cycle: 17

Station Type Date Time Source
LIBD TAF 2020/07/09 18:22 UTC NOAA

TAF LIBD 091700Z 0918/1018 VRB05KT CAVOK
BECMG 1008/1010 03010KT
BECMG 1016/1018 VRB05KT

Example: see airport list